上海/浦東 の空港の天気 - METARとTAF

上海浦東国際空港 ( ZSPD / PVG ) - 中国 上海市
飛行場実況気象(Metar)
観測時間04/16 19:00 CST (04/16 11:00 UTC)
風向・風速東南東 3m/s
視程10km以上
天気現象
少しの雲 雲底高度 610m
気温17℃
湿度83%
気圧1017hPa
METARZSPD 161100Z 11003MPS 9999 FEW020 17/14 Q1017 NOSIG
過去の天気等 Google飛行場航空写真 Wunderground天気予報

過去48時間のMETAR

飛行場予報(TAF)
発表時間: 4/16 11:13 CST (4/16 03:13 UTC)
予報対象時間: 16日14時 CST ~ 17日14時 CST
風向・風速東北東 4m/s
視程6000m
全天の8割程度の雲 雲底高度 460m
16日19時 CST ~ 16日20時 CST に徐々に
風向・風速南 4m/s
17日6時 CST ~ 17日7時 CST に徐々に
風向・風速北北西 6m/s
TAF ZSPD 160313Z 1606/1706 06004MPS 6000 BKN015 TX23/1606Z TN10/1620Z
BECMG 1611/1612 19004MPS
BECMG 1622/1623 34006MPS